This is the latest recevied weather packets stored in our database for station/object LKKU. If no packets are shown the sender has not sent any weather packets the latest 10 day(s).
| Time | Temp. | Humidity | Pressure | Rain* | Wind** | Luminosity | Snow |
|---|---|---|---|---|---|---|---|
| 1777791785 | 18.89° C | 34% | 1020 hPa | - | - | - | - |
| 1777789324 | 17.22° C | 39% | 1020 hPa | - | - | - | - |
| 1777730585 | 22.78° C | 25% | 1021 hPa | - | - | - | - |
| 1777726966 | 22.78° C | 29% | 1021 hPa | - | - | - | - |
| 1777723386 | 22.22° C | 30% | 1022 hPa | - | - | - | - |
| 1777719767 | 21.11° C | 35% | 1023 hPa | - | - | - | - |
| 1777716186 | 20° C | 34% | 1024 hPa | - | - | - | - |
| 1777712587 | 20° C | 37% | 1024 hPa | - | - | - | - |
| 1777708987 | 17.22° C | 48% | 1025 hPa | - | - | - | - |
| 1777705387 | 13.89° C | 54% | 1025 hPa | - | - | - | - |
| 1777636985 | 17.78° C | 36% | 1026 hPa | - | - | - | - |
| 1777633387 | 17.22° C | 39% | 1027 hPa | - | - | - | - |
| 1777629786 | 16.11° C | 41% | 1028 hPa | - | - | - | - |
| 1777626185 | 13.89° C | 44% | 1028 hPa | - | - | - | - |
| 1777622586 | 12.78° C | 43% | 1029 hPa | - | - | - | - |
| 1777620785 | 11.11° C | 50% | 1029 hPa | - | - | - | - |
| 1777557771 | 13.89° C | 24% | 1028 hPa | - | - | - | - |
| 1777554166 | 13.89° C | 24% | 1028 hPa | - | - | - | - |
| 1777550587 | 12.22° C | 27% | 1029 hPa | - | - | - | - |
| 1777546967 | 12.22° C | 27% | 1029 hPa | - | - | - | - |
| 1777543396 | 11.11° C | 32% | 1030 hPa | - | - | - | - |
| 1777539787 | 10° C | 34% | 1030 hPa | - | - | - | - |
| 1777536186 | 8.89° C | 36% | 1030 hPa | - | - | - | - |
| 1777532585 | 7.22° C | 45% | 1031 hPa | - | - | - | - |
| 1777528967 | 5° C | 52% | 1030 hPa | - | - | - | - |
* Rain since midnight (hover to see other rain measurements)
** Current wind speed in m/s (hover to see current wind gust speed)